Time;durP1;ratioP1;P1;durP2;ratioP2;P2;SDS_P1;SDS_P2;PMS_P1;PMS_P2;Temp;Humidity;BMP_temperature;BMP_pressure;BME280_temperature;BME280_humidity;BME280_pressure;Samples;Min_cycle;Max_cycle;Signal;HPM_P1;HPM_P2
2023/03/20 00:00:09;;;;;;;79.03;25.27;;;;;;;7.01;100.00;101220.00;7393982;19;20443;-42
2023/03/20 00:02:39;;;;;;;77.13;23.70;;;;;;;7.01;100.00;101209.72;7395241;19;20438;-44
2023/03/20 00:05:17;;;;;;;66.30;25.13;;;;;;;7.05;100.00;101208.25;7393926;19;20439;-43
2023/03/20 00:07:48;;;;;;;81.40;26.97;;;;;;;7.06;100.00;101208.34;7397448;19;20412;-44
2023/03/20 00:10:18;;;;;;;76.63;25.33;;;;;;;7.05;100.00;101209.13;7392943;19;20474;-41
2023/03/20 00:12:50;;;;;;;76.00;25.00;;;;;;;7.05;100.00;101211.72;7395111;19;20982;-43
2023/03/20 00:15:27;;;;;;;79.87;25.73;;;;;;;7.04;100.00;101209.94;7393832;19;20437;-42
2023/03/20 00:17:57;;;;;;;99.40;26.70;;;;;;;7.05;100.00;101211.72;7396796;19;20403;-42
2023/03/20 00:20:27;;;;;;;80.70;25.00;;;;;;;7.03;100.00;101219.31;7393294;19;20454;-47
2023/03/20 00:22:57;;;;;;;91.40;26.90;;;;;;;7.06;100.00;101220.28;7394844;19;20443;-44
2023/03/20 00:25:28;;;;;;;83.93;26.57;;;;;;;7.06;100.00;101218.59;7388034;19;20435;-40
2023/03/20 00:27:57;;;;;;;83.00;27.37;;;;;;;7.09;100.00;101210.22;7394461;19;20410;-41
2023/03/20 00:30:31;;;;;;;84.87;25.47;;;;;;;7.06;100.00;101215.13;7393057;19;20436;-45
2023/03/20 00:33:01;;;;;;;84.27;26.13;;;;;;;7.05;100.00;101216.84;7395039;19;20534;-43
2023/03/20 00:35:32;;;;;;;100.43;27.50;;;;;;;7.06;100.00;101223.75;7393619;19;20443;-45
2023/03/20 00:38:02;;;;;;;90.87;27.53;;;;;;;7.02;100.00;101217.53;7396986;19;20395;-42
2023/03/20 00:40:32;;;;;;;89.90;26.97;;;;;;;7.04;100.00;101220.19;7394192;19;20411;-41
2023/03/20 00:43:03;;;;;;;90.97;27.33;;;;;;;7.03;100.00;101218.44;7394697;19;20990;-41
2023/03/20 00:45:36;;;;;;;91.80;29.87;;;;;;;7.05;100.00;101210.81;7393484;19;20953;-42
2023/03/20 00:48:07;;;;;;;94.10;27.87;;;;;;;7.10;100.00;101210.31;7396675;19;20440;-43
2023/03/20 00:50:36;;;;;;;83.47;25.00;;;;;;;7.05;100.00;101211.72;7392653;19;20450;-50
2023/03/20 00:53:05;;;;;;;91.37;27.67;;;;;;;7.08;100.00;101209.31;7392882;19;20966;-43
2023/03/20 00:55:35;;;;;;;79.87;28.50;;;;;;;7.11;100.00;101206.97;7392253;19;20435;-43
2023/03/20 00:58:05;;;;;;;91.20;26.80;;;;;;;7.07;100.00;101207.53;7396205;19;21005;-42
2023/03/20 01:00:42;;;;;;;84.93;27.93;;;;;;;7.07;100.00;101206.69;7392946;19;20449;-43
2023/03/20 01:03:16;;;;;;;88.17;27.80;;;;;;;7.10;100.00;101207.75;7393517;19;20449;-42
2023/03/20 01:05:46;;;;;;;74.37;26.70;;;;;;;7.11;100.00;101214.66;7392108;19;20431;-43
2023/03/20 01:08:16;;;;;;;90.23;28.47;;;;;;;7.10;100.00;101215.47;7393534;19;20435;-42
2023/03/20 01:10:47;;;;;;;81.50;27.70;;;;;;;7.11;100.00;101216.31;7386629;19;20459;-42
2023/03/20 01:13:22;;;;;;;89.70;27.60;;;;;;;7.12;100.00;101211.28;7386204;19;20415;-43
2023/03/20 01:15:56;;;;;;;77.17;26.00;;;;;;;7.13;100.00;101214.78;7385124;19;20433;-44
2023/03/20 01:18:28;;;;;;;98.90;30.40;;;;;;;7.13;100.00;101219.91;7387232;19;20401;-43
2023/03/20 01:20:57;;;;;;;87.97;28.43;;;;;;;7.16;100.00;101226.09;7385763;19;20419;-45
2023/03/20 01:23:27;;;;;;;81.73;26.17;;;;;;;7.12;100.00;101224.13;7386180;19;20432;-43
2023/03/20 01:25:57;;;;;;;86.60;27.33;;;;;;;7.14;100.00;101227.66;7386223;19;20403;-42
2023/03/20 01:28:34;;;;;;;83.33;26.43;;;;;;;7.13;100.00;101225.91;7389603;19;20408;-45
2023/03/20 01:31:07;;;;;;;91.87;28.73;;;;;;;7.15;100.00;101226.00;7389673;19;20777;-43
2023/03/20 01:33:37;;;;;;;84.30;26.97;;;;;;;7.18;100.00;101225.31;7387619;19;20423;-43
2023/03/20 01:36:07;;;;;;;95.53;27.60;;;;;;;7.11;100.00;101237.75;7387111;19;20407;-43
2023/03/20 01:38:36;;;;;;;71.40;25.47;;;;;;;7.06;100.00;101234.00;7390445;19;20392;-42
2023/03/20 01:41:09;;;;;;;59.90;22.63;;;;;;;6.86;100.00;101237.84;7387838;19;20427;-45
2023/03/20 01:43:38;;;;;;;56.07;20.23;;;;;;;6.74;100.00;101240.53;7388018;19;20415;-45
2023/03/20 01:46:18;;;;;;;73.40;23.63;;;;;;;6.58;100.00;101242.09;7386972;19;20864;-43
2023/03/20 01:49:01;;;;;;;53.20;19.73;;;;;;;6.50;100.00;101240.69;7389564;19;20402;-41
2023/03/20 01:51:34;;;;;;;65.73;22.50;;;;;;;6.52;100.00;101248.47;7387599;19;20423;-45
2023/03/20 01:54:10;;;;;;;67.97;21.70;;;;;;;6.43;100.00;101261.56;7385374;19;20418;-43
2023/03/20 01:56:45;;;;;;;53.47;20.33;;;;;;;6.37;100.00;101264.63;7389840;19;20414;-45
2023/03/20 01:59:17;;;;;;;54.27;20.30;;;;;;;6.33;100.00;101253.28;7386907;19;20418;-44
2023/03/20 02:01:50;;;;;;;47.77;19.37;;;;;;;6.21;100.00;101261.03;7389723;19;21039;-42
2023/03/20 02:04:20;;;;;;;45.60;18.97;;;;;;;6.26;100.00;101256.19;7386553;19;20419;-44
2023/03/20 02:06:50;;;;;;;45.53;19.37;;;;;;;6.23;100.00;101261.13;7397276;19;20398;-43
2023/03/20 02:09:20;;;;;;;59.13;21.67;;;;;;;6.17;100.00;101263.28;7395090;19;20403;-42
2023/03/20 02:11:50;;;;;;;61.83;20.77;;;;;;;6.17;100.00;101265.84;7396348;19;20379;-42
2023/03/20 02:14:20;;;;;;;51.30;20.60;;;;;;;6.17;100.00;101265.84;7395580;19;20417;-42
2023/03/20 02:16:52;;;;;;;53.13;20.17;;;;;;;6.15;100.00;101254.59;7397542;19;20742;-43
2023/03/20 02:19:26;;;;;;;55.67;18.13;;;;;;;6.10;100.00;101261.97;7395505;19;20978;-43
2023/03/20 02:22:17;;;;;;;41.33;16.50;;;;;;;6.03;100.00;101259.75;7396675;19;20407;-45
2023/03/20 02:25:02;;;;;;;44.07;16.63;;;;;;;5.97;100.00;101254.19;7394383;19;20430;-43
2023/03/20 02:27:35;;;;;;;42.00;16.73;;;;;;;5.88;100.00;101263.03;7397187;19;20387;-42
2023/03/20 02:30:34;;;;;;;34.73;14.57;;;;;;;5.81;100.00;101255.72;7394689;19;20777;-42
2023/03/20 02:33:34;;;;;;;41.20;15.33;;;;;;;5.78;100.00;101256.38;7394476;19;20794;-43
2023/03/20 02:36:48;;;;;;;40.00;15.23;;;;;;;5.76;100.00;101257.06;7394359;19;20415;-42
2023/03/20 02:39:37;;;;;;;40.13;14.57;;;;;;;5.79;100.00;101258.16;7393012;19;20429;-44
2023/03/20 02:42:13;;;;;;;44.40;16.07;;;;;;;5.77;100.00;101257.19;7396162;19;20407;-43
2023/03/20 02:44:46;;;;;;;35.20;13.93;;;;;;;5.81;100.00;101250.59;7392009;19;20758;-45
2023/03/20 02:47:20;;;;;;;37.00;14.07;;;;;;;5.80;100.00;101239.44;7396972;19;20392;-45
2023/03/20 02:49:57;;;;;;;37.30;13.10;;;;;;;5.80;100.00;101244.56;7396421;19;20445;-42
2023/03/20 02:52:33;;;;;;;37.90;12.63;;;;;;;5.79;100.00;101242.78;7394936;19;20965;-45
2023/03/20 02:55:12;;;;;;;32.70;13.43;;;;;;;5.78;100.00;101237.56;7393183;19;20395;-45
2023/03/20 02:57:49;;;;;;;30.10;12.30;;;;;;;5.79;100.00;101236.78;7396430;19;20406;-44
2023/03/20 03:00:27;;;;;;;29.67;10.40;;;;;;;5.77;100.00;101236.69;7393144;19;20411;-43
2023/03/20 03:03:02;;;;;;;29.40;9.20;;;;;;;5.79;100.00;101236.78;7398303;19;20799;-43
2023/03/20 03:05:37;;;;;;;20.83;8.60;;;;;;;5.75;100.00;101235.66;7393911;19;20419;-43
2023/03/20 03:08:09;;;;;;;22.03;8.00;;;;;;;5.76;100.00;101242.59;7396250;19;20395;-43
2023/03/20 03:10:43;;;;;;;17.60;6.87;;;;;;;5.81;100.00;101230.97;7393343;19;20426;-42
2023/03/20 03:13:17;;;;;;;21.57;7.50;;;;;;;5.77;100.00;101231.56;7393053;19;20435;-43
2023/03/20 03:15:48;;;;;;;17.67;7.07;;;;;;;5.70;100.00;101226.81;7392849;19;20406;-43
2023/03/20 03:18:21;;;;;;;15.70;6.20;;;;;;;5.67;100.00;101224.94;7395718;19;20392;-45
2023/03/20 03:20:53;;;;;;;18.60;6.67;;;;;;;5.64;100.00;101223.81;7393068;19;20415;-41
2023/03/20 03:23:28;;;;;;;17.77;6.17;;;;;;;5.63;100.00;101219.47;7393503;19;20783;-43
2023/03/20 03:26:02;;;;;;;19.60;7.00;;;;;;;5.69;100.00;101217.31;7391612;19;20446;-45
2023/03/20 03:28:37;;;;;;;18.70;8.50;;;;;;;5.65;100.00;101208.53;7395479;19;20382;-46
2023/03/20 03:31:08;;;;;;;17.30;6.97;;;;;;;5.66;100.00;101204.31;7392630;19;20398;-45
2023/03/20 03:33:41;;;;;;;17.47;6.60;;;;;;;5.63;100.00;101209.22;7392613;19;20781;-43
2023/03/20 03:36:15;;;;;;;16.73;6.90;;;;;;;5.64;100.00;101205.91;7394244;19;20983;-44
2023/03/20 03:38:50;;;;;;;15.23;7.53;;;;;;;5.62;100.00;101210.00;7395596;19;20395;-42
2023/03/20 03:41:27;;;;;;;22.33;7.40;;;;;;;5.62;100.00;101215.13;7394259;19;20793;-44
2023/03/20 03:44:02;;;;;;;14.30;7.20;;;;;;;5.65;100.00;101213.66;7391109;19;20454;-43
2023/03/20 03:46:36;;;;;;;18.60;7.43;;;;;;;5.67;100.00;101211.22;7394357;19;20388;-43
2023/03/20 03:49:06;;;;;;;16.17;7.00;;;;;;;5.63;100.00;101214.34;7391769;19;20388;-43
2023/03/20 03:51:39;;;;;;;14.27;6.53;;;;;;;5.59;100.00;101208.13;7393688;19;20419;-42
2023/03/20 03:54:11;;;;;;;15.10;6.67;;;;;;;5.62;100.00;101213.47;7389742;19;20455;-44
2023/03/20 03:56:45;;;;;;;12.43;5.47;;;;;;;5.60;100.00;101209.03;7394100;19;20400;-42
2023/03/20 03:59:18;;;;;;;18.63;6.20;;;;;;;5.61;100.00;101221.03;7389302;19;20414;-44
2023/03/20 04:01:48;;;;;;;13.87;6.53;;;;;;;5.58;100.00;101210.59;7393963;19;20800;-43
2023/03/20 04:04:18;;;;;;;15.73;5.90;;;;;;;5.57;100.00;101219.03;7392137;19;20767;-41
2023/03/20 04:06:48;;;;;;;12.90;5.73;;;;;;;5.56;100.00;101215.59;7394433;19;20932;-41
2023/03/20 04:09:18;;;;;;;13.10;6.20;;;;;;;5.56;100.00;101209.59;7391805;19;20408;-47
2023/03/20 04:11:53;;;;;;;13.20;6.07;;;;;;;5.51;100.00;101209.28;7393544;19;20931;-46
2023/03/20 04:14:22;;;;;;;10.10;5.60;;;;;;;5.52;100.00;101204.25;7390841;19;20399;-44
2023/03/20 04:16:52;;;;;;;11.10;5.40;;;;;;;5.48;100.00;101215.06;7393424;19;20399;-43
2023/03/20 04:19:21;;;;;;;12.00;5.30;;;;;;;5.50;100.00;101215.19;7389877;19;20419;-42
2023/03/20 04:21:51;;;;;;;9.40;5.00;;;;;;;5.50;100.00;101203.25;7392697;19;20388;-41
2023/03/20 04:24:20;;;;;;;9.77;4.30;;;;;;;5.52;100.00;101204.25;7389747;19;20422;-47
2023/03/20 04:26:52;;;;;;;11.87;5.73;;;;;;;5.49;100.00;101201.47;7394052;19;20403;-44
2023/03/20 04:29:22;;;;;;;8.33;4.83;;;;;;;5.52;100.00;101200.81;7389793;19;20426;-43
2023/03/20 04:31:51;;;;;;;9.57;4.80;;;;;;;5.49;100.00;101195.50;7392738;19;20396;-42
2023/03/20 04:34:21;;;;;;;9.67;4.90;;;;;;;5.50;100.00;101194.69;7389247;19;20415;-43
2023/03/20 04:36:51;;;;;;;11.00;5.27;;;;;;;5.52;100.00;101191.47;7392728;19;20407;-43
2023/03/20 04:39:21;;;;;;;11.80;5.00;;;;;;;5.52;100.00;101191.47;7390181;19;20503;-42
2023/03/20 04:41:53;;;;;;;10.77;4.97;;;;;;;5.50;100.00;101187.88;7391854;19;20933;-42
2023/03/20 04:44:22;;;;;;;15.60;5.90;;;;;;;5.51;100.00;101199.03;7387620;19;20799;-43
2023/03/20 04:46:52;;;;;;;10.37;4.90;;;;;;;5.53;100.00;101194.91;7392645;19;20395;-43
2023/03/20 04:49:21;;;;;;;11.20;5.57;;;;;;;5.53;100.00;101198.34;7390933;19;20782;-44
2023/03/20 04:51:51;;;;;;;12.70;5.60;;;;;;;5.49;100.00;101198.91;7396611;19;20402;-42
2023/03/20 04:54:20;;;;;;;11.90;4.77;;;;;;;5.49;100.00;101192.94;7388824;19;20411;-44
2023/03/20 04:56:52;;;;;;;13.60;5.47;;;;;;;5.47;100.00;101189.34;7392348;19;20376;-42
2023/03/20 04:59:22;;;;;;;17.47;6.40;;;;;;;5.51;100.00;101188.78;7390110;19;20419;-42
2023/03/20 05:01:51;;;;;;;17.17;6.67;;;;;;;5.54;100.00;101192.44;7391505;19;20379;-42
2023/03/20 05:04:21;;;;;;;15.40;6.93;;;;;;;5.58;100.00;101190.13;7389710;19;20425;-47
2023/03/20 05:06:51;;;;;;;12.90;5.87;;;;;;;5.57;100.00;101178.06;7394197;19;20415;-45
2023/03/20 05:09:20;;;;;;;15.97;6.30;;;;;;;5.53;100.00;101183.00;7389559;19;20435;-42
2023/03/20 05:11:52;;;;;;;18.67;8.13;;;;;;;5.54;100.00;101178.78;7391752;19;20757;-41
2023/03/20 05:14:22;;;;;;;14.77;5.70;;;;;;;5.47;100.00;101195.38;7388976;19;20438;-44
2023/03/20 05:16:52;;;;;;;12.93;5.83;;;;;;;5.49;100.00;101191.25;7391968;19;20391;-44
2023/03/20 05:19:21;;;;;;;13.07;4.83;;;;;;;5.46;100.00;101185.03;7389463;19;20438;-45
2023/03/20 05:21:51;;;;;;;11.27;6.03;;;;;;;5.49;100.00;101211.72;7391437;19;20445;-42
2023/03/20 05:24:21;;;;;;;7.40;3.73;;;;;;;5.46;100.00;101232.00;7387169;19;20403;-43
2023/03/20 05:26:53;;;;;;;11.17;4.83;;;;;;;5.40;100.00;101237.56;7391668;19;20419;-45
2023/03/20 05:29:22;;;;;;;10.63;4.43;;;;;;;5.45;100.00;101244.69;7389262;19;20941;-44
2023/03/20 05:31:52;;;;;;;10.77;5.53;;;;;;;5.49;100.00;101252.66;7390664;19;20422;-44
2023/03/20 05:34:22;;;;;;;7.60;4.10;;;;;;;5.43;100.00;101259.91;7388533;19;20407;-42
2023/03/20 05:36:51;;;;;;;13.40;5.90;;;;;;;5.47;100.00;101279.84;7391557;19;20395;-43
2023/03/20 05:39:21;;;;;;;8.80;4.40;;;;;;;5.44;100.00;101278.72;7391367;19;20411;-46
2023/03/20 05:41:53;;;;;;;12.17;5.67;;;;;;;5.46;100.00;101289.97;7399084;19;20383;-42
2023/03/20 05:44:22;;;;;;;14.30;5.27;;;;;;;5.51;100.00;101291.19;7397414;19;20407;-44
2023/03/20 05:46:52;;;;;;;11.77;5.03;;;;;;;5.46;100.00;101298.53;7399198;19;20400;-43
2023/03/20 05:49:21;;;;;;;11.20;5.33;;;;;;;5.46;100.00;101307.88;7395873;19;20415;-45
2023/03/20 05:51:51;;;;;;;12.40;5.43;;;;;;;5.45;100.00;101311.22;7397744;19;20413;-43
2023/03/20 05:54:21;;;;;;;12.53;5.67;;;;;;;5.44;100.00;101325.69;7394885;19;20439;-41
2023/03/20 05:56:53;;;;;;;11.83;6.10;;;;;;;5.43;100.00;101323.03;7398016;19;20379;-45
2023/03/20 05:59:22;;;;;;;12.90;5.57;;;;;;;5.41;100.00;101328.03;7392942;19;20759;-43
2023/03/20 06:01:52;;;;;;;14.20;6.50;;;;;;;5.44;100.00;101325.69;7397578;19;20388;-42
2023/03/20 06:04:21;;;;;;;11.83;5.73;;;;;;;5.46;100.00;101329.25;7393109;19;20407;-42
2023/03/20 06:06:51;;;;;;;12.23;5.93;;;;;;;5.43;100.00;101329.03;7397711;19;20399;-41
2023/03/20 06:09:20;;;;;;;16.80;6.03;;;;;;;5.37;100.00;101328.56;7395574;19;20395;-45
2023/03/20 06:11:52;;;;;;;11.00;5.40;;;;;;;5.36;100.00;101321.69;7397632;19;20629;-44
2023/03/20 06:14:22;;;;;;;15.80;7.40;;;;;;;5.43;100.00;101323.03;7394606;19;20407;-45
2023/03/20 06:16:52;;;;;;;17.93;7.03;;;;;;;5.41;100.00;101330.59;7398366;19;20383;-46
2023/03/20 06:19:22;;;;;;;20.97;7.20;;;;;;;5.42;100.00;101332.38;7395088;19;20411;-45
2023/03/20 06:21:52;;;;;;;13.80;5.70;;;;;;;5.38;100.00;101320.13;7396513;19;20382;-43
2023/03/20 06:24:22;;;;;;;17.77;7.30;;;;;;;5.42;100.00;101326.38;7394203;19;20395;-44
2023/03/20 06:26:54;;;;;;;18.17;7.57;;;;;;;5.42;100.00;101316.13;7397898;19;20391;-43
2023/03/20 06:29:24;;;;;;;18.63;8.00;;;;;;;5.42;100.00;101309.31;7394460;19;20415;-42
2023/03/20 06:31:53;;;;;;;18.00;7.80;;;;;;;5.49;100.00;101308.97;7397020;19;20387;-43
2023/03/20 06:34:23;;;;;;;20.40;7.80;;;;;;;5.47;100.00;101305.44;7394054;19;20402;-44
2023/03/20 06:36:53;;;;;;;20.07;8.60;;;;;;;5.47;100.00;101290.06;7397518;19;20401;-47
2023/03/20 06:39:22;;;;;;;23.17;8.00;;;;;;;5.48;100.00;101284.16;7394059;19;20413;-45
2023/03/20 06:41:54;;;;;;;18.47;8.20;;;;;;;5.53;100.00;101275.16;7396819;19;20388;-44
2023/03/20 06:44:25;;;;;;;19.80;7.97;;;;;;;5.56;100.00;101274.47;7394489;19;20402;-43
2023/03/20 06:46:55;;;;;;;18.87;9.40;;;;;;;5.62;100.00;101271.44;7397122;19;20395;-47
2023/03/20 06:49:25;;;;;;;22.50;9.63;;;;;;;5.61;100.00;101267.13;7393186;19;20411;-47
2023/03/20 06:51:54;;;;;;;25.53;9.37;;;;;;;5.61;100.00;101268.03;7394695;19;20388;-43
2023/03/20 06:54:24;;;;;;;25.07;9.17;;;;;;;5.60;100.00;101255.09;7394064;19;21242;-45
2023/03/20 06:56:56;;;;;;;18.80;9.47;;;;;;;5.63;100.00;101255.31;7400158;19;20388;-43
2023/03/20 06:59:25;;;;;;;24.00;9.83;;;;;;;5.72;100.00;101255.06;7393639;19;20441;-46
2023/03/20 07:01:55;;;;;;;23.20;9.00;;;;;;;5.77;100.00;101248.59;7396059;19;20391;-43
2023/03/20 07:04:25;;;;;;;19.10;8.70;;;;;;;5.72;100.00;101253.41;7393714;19;20737;-43
2023/03/20 07:06:54;;;;;;;21.70;9.47;;;;;;;5.76;100.00;101247.72;7396580;19;20384;-47
2023/03/20 07:09:24;;;;;;;24.83;8.17;;;;;;;5.76;100.00;101251.94;7394768;19;20422;-42
2023/03/20 07:11:56;;;;;;;19.07;8.40;;;;;;;5.81;100.00;101254.03;7395359;19;20379;-44
2023/03/20 07:14:26;;;;;;;20.77;8.40;;;;;;;5.86;100.00;101261.16;7393522;19;20478;-43
2023/03/20 07:16:55;;;;;;;19.53;9.03;;;;;;;5.89;100.00;101263.94;7395813;19;20391;-46
2023/03/20 07:19:25;;;;;;;18.97;9.20;;;;;;;5.91;100.00;101267.47;7392970;19;20925;-43
2023/03/20 07:21:56;;;;;;;18.07;9.00;;;;;;;5.92;100.00;101269.25;7395178;19;20387;-42
2023/03/20 07:24:26;;;;;;;16.63;8.27;;;;;;;5.91;100.00;101277.72;7391769;19;20430;-43
2023/03/20 07:26:58;;;;;;;18.10;8.37;;;;;;;5.88;100.00;101278.41;7395217;19;20764;-42
2023/03/20 07:29:28;;;;;;;16.67;8.30;;;;;;;5.90;100.00;101283.63;7392551;19;20466;-45
2023/03/20 07:31:59;;;;;;;20.23;9.07;;;;;;;6.06;100.00;101294.16;7394810;19;20414;-41
2023/03/20 07:34:29;;;;;;;19.97;8.93;;;;;;;6.04;100.00;101290.63;7392532;19;20420;-41
2023/03/20 07:36:59;;;;;;;16.13;8.57;;;;;;;6.12;100.00;101297.94;7395470;19;20406;-48
2023/03/20 07:39:28;;;;;;;14.93;6.63;;;;;;;6.05;100.00;101302.66;7391147;19;20419;-46
2023/03/20 07:42:00;;;;;;;16.23;7.43;;;;;;;6.04;100.00;101311.13;7394231;19;20391;-45
2023/03/20 07:44:30;;;;;;;15.10;6.93;;;;;;;6.05;100.00;101319.72;7392600;19;20415;-44
2023/03/20 07:46:59;;;;;;;16.07;6.90;;;;;;;6.09;100.00;101324.25;7399043;19;20387;-42
2023/03/20 07:49:29;;;;;;;13.40;6.97;;;;;;;6.14;100.00;101321.97;7391923;19;20493;-45
2023/03/20 07:51:58;;;;;;;12.30;5.63;;;;;;;6.10;100.00;101322.56;7394114;19;20379;-45
2023/03/20 07:54:28;;;;;;;16.17;7.63;;;;;;;6.12;100.00;101334.72;7390823;19;20463;-44
2023/03/20 07:56:57;;;;;;;15.70;7.63;;;;;;;6.16;100.00;101341.81;7395131;19;20383;-45
2023/03/20 07:59:29;;;;;;;10.77;6.23;;;;;;;6.20;100.00;101345.47;7391962;19;20777;-46
2023/03/20 08:01:59;;;;;;;11.47;6.60;;;;;;;6.23;100.00;101348.25;7392835;19;20726;-44
2023/03/20 08:04:28;;;;;;;11.03;6.93;;;;;;;6.30;100.00;101341.91;7390542;19;20431;-44
2023/03/20 08:06:58;;;;;;;17.23;7.23;;;;;;;6.28;100.00;101357.16;7394214;19;20423;-46
2023/03/20 08:09:27;;;;;;;14.93;7.20;;;;;;;6.33;100.00;101360.94;7391127;19;20450;-44
2023/03/20 08:11:57;;;;;;;18.67;7.80;;;;;;;6.38;100.00;101368.03;7393538;19;20392;-44
2023/03/20 08:14:26;;;;;;;20.87;7.70;;;;;;;6.43;100.00;101372.72;7391295;19;20423;-44
2023/03/20 08:16:59;;;;;;;14.33;6.90;;;;;;;6.47;100.00;101389.19;7394673;19;20404;-43
2023/03/20 08:19:42;;;;;;;12.60;6.60;;;;;;;6.44;100.00;101394.09;7391570;19;20761;-44
2023/03/20 08:22:12;;;;;;;16.00;4.37;;;;;;;6.40;100.00;101407.50;7391774;19;20400;-43
2023/03/20 08:24:41;;;;;;;12.10;5.73;;;;;;;6.43;100.00;101415.38;7390116;19;20415;-43
2023/03/20 08:27:11;;;;;;;11.03;6.40;;;;;;;6.48;100.00;101419.16;7393013;19;20392;-44
2023/03/20 08:29:40;;;;;;;8.07;4.67;;;;;;;6.45;100.00;101416.38;7387861;19;20419;-45
2023/03/20 08:32:12;;;;;;;15.40;6.40;;;;;;;6.52;100.00;101420.25;7392202;19;20915;-44
2023/03/20 08:34:42;;;;;;;12.37;5.63;;;;;;;6.47;100.00;101436.19;7387811;19;20419;-44
2023/03/20 08:37:12;;;;;;;11.50;5.30;;;;;;;6.51;100.00;101427.03;7393589;19;20402;-41
2023/03/20 08:39:42;;;;;;;19.63;6.40;;;;;;;6.57;100.00;101435.16;7393799;19;20410;-43
2023/03/20 08:42:12;;;;;;;6.30;3.67;;;;;;;6.55;100.00;101429.03;7391080;19;20707;-43
2023/03/20 08:44:41;;;;;;;9.97;5.77;;;;;;;6.61;100.00;101439.72;7390924;19;20957;-43
2023/03/20 08:47:13;;;;;;;14.93;6.17;;;;;;;6.69;100.00;101449.63;7392581;19;20388;-45
2023/03/20 08:49:43;;;;;;;15.83;5.70;;;;;;;6.72;100.00;101437.03;7390455;19;20462;-42
2023/03/20 08:52:12;;;;;;;14.93;6.13;;;;;;;6.76;100.00;101439.00;7391466;19;20406;-42
2023/03/20 08:54:42;;;;;;;9.50;5.70;;;;;;;6.86;100.00;101435.38;7389614;19;20827;-43
2023/03/20 08:57:11;;;;;;;7.93;4.67;;;;;;;6.88;100.00;101429.56;7392402;19;20408;-42
2023/03/20 08:59:41;;;;;;;13.30;4.80;;;;;;;6.89;100.00;101440.72;7389698;19;20470;-42
2023/03/20 09:02:14;;;;;;;10.40;5.90;;;;;;;6.93;100.00;101446.94;7392500;19;20390;-43
2023/03/20 09:04:43;;;;;;;10.60;3.50;;;;;;;6.84;100.00;101445.56;7392068;19;20432;-42
2023/03/20 09:07:14;;;;;;;8.80;4.43;;;;;;;6.88;100.00;101437.25;7391829;19;20402;-47
2023/03/20 09:09:44;;;;;;;11.50;4.67;;;;;;;6.96;100.00;101449.72;7388999;19;20407;-43
2023/03/20 09:12:14;;;;;;;7.47;3.70;;;;;;;6.96;100.00;101457.41;7390494;19;20396;-43
2023/03/20 09:14:44;;;;;;;8.10;4.37;;;;;;;6.94;100.00;101453.84;7389363;19;20430;-42
2023/03/20 09:17:18;;;;;;;12.23;5.30;;;;;;;6.98;100.00;101455.84;7394713;19;20414;-44
2023/03/20 09:19:48;;;;;;;5.57;3.30;;;;;;;6.99;100.00;101453.38;7388330;19;20402;-47
2023/03/20 09:22:18;;;;;;;9.03;4.47;;;;;;;7.02;100.00;101452.69;7388822;19;20387;-42
2023/03/20 09:24:48;;;;;;;10.57;4.80;;;;;;;7.11;100.00;101458.47;7390168;19;20434;-44
2023/03/20 09:27:20;;;;;;;13.77;4.37;;;;;;;7.09;100.00;101465.19;7392701;19;20415;-43
2023/03/20 09:29:50;;;;;;;4.80;3.00;;;;;;;7.05;100.00;101463.19;7390516;19;20974;-44
2023/03/20 09:32:22;;;;;;;14.90;4.87;;;;;;;7.06;100.00;101470.09;7392416;19;21035;-42
2023/03/20 09:34:51;;;;;;;13.80;4.60;;;;;;;7.03;100.00;101462.19;7391600;19;20427;-42
2023/03/20 09:37:20;;;;;;;11.97;4.30;;;;;;;7.03;100.00;101467.31;7392794;19;20415;-43
2023/03/20 09:39:50;;;;;;;9.10;5.07;;;;;;;6.99;100.00;101471.34;7389924;19;20462;-45
2023/03/20 09:42:27;;;;;;;8.67;3.80;;;;;;;6.95;100.00;101478.72;7392981;19;20408;-48
2023/03/20 09:45:03;;;;;;;9.90;4.60;;;;;;;7.01;100.00;101482.59;7390701;19;20435;-44
2023/03/20 09:47:42;;;;;;;13.50;5.53;;;;;;;7.03;100.00;101480.16;7394710;19;20947;-45
2023/03/20 09:50:22;;;;;;;11.90;5.93;;;;;;;7.09;100.00;101480.56;7390681;19;20453;-45
2023/03/20 09:52:58;;;;;;;12.17;5.60;;;;;;;7.07;100.00;101478.69;7392316;19;20431;-43
2023/03/20 09:55:33;;;;;;;10.77;5.30;;;;;;;7.08;100.00;101488.16;7390393;19;20979;-46
2023/03/20 09:58:07;;;;;;;13.40;5.47;;;;;;;7.05;100.00;101483.69;7393647;19;20415;-43
2023/03/20 10:00:37;;;;;;;11.63;5.83;;;;;;;7.17;100.00;101483.63;7391031;19;20427;-43
2023/03/20 10:03:17;;;;;;;14.23;5.73;;;;;;;7.23;100.00;101478.03;7392717;19;20451;-51
2023/03/20 10:05:49;;;;;;;27.83;9.90;;;;;;;7.25;100.00;101486.72;7390555;19;20435;-48
2023/03/20 10:08:20;;;;;;;21.03;5.07;;;;;;;7.16;100.00;101489.56;7393480;19;20766;-44
2023/03/20 10:10:53;;;;;;;13.50;5.93;;;;;;;7.21;100.00;101488.19;7390765;19;20431;-42
2023/03/20 10:13:37;;;;;;;41.43;12.10;;;;;;;7.24;100.00;101483.25;7392319;19;20443;-44
2023/03/20 10:16:13;;;;;;;12.63;6.23;;;;;;;7.27;100.00;101483.47;7390179;19;20864;-44
2023/03/20 10:18:50;;;;;;;28.33;9.97;;;;;;;7.27;100.00;101485.13;7392364;19;20412;-48
2023/03/20 10:21:24;;;;;;;19.87;6.77;;;;;;;7.25;100.00;101477.34;7389520;19;20439;-41
2023/03/20 10:23:58;;;;;;;12.23;4.80;;;;;;;7.19;100.00;101476.03;7387130;19;20431;-43
2023/03/20 10:26:29;;;;;;;13.20;4.90;;;;;;;7.30;100.00;101465.69;7395907;19;20712;-42
2023/03/20 10:29:00;;;;;;;12.10;5.50;;;;;;;7.25;100.00;101477.34;7397411;19;20403;-41
2023/03/20 10:31:37;;;;;;;16.67;6.73;;;;;;;7.33;100.00;101465.00;7399409;19;20403;-43
2023/03/20 10:34:22;;;;;;;10.57;5.50;;;;;;;7.22;100.00;101468.56;7395133;19;20793;-44
2023/03/20 10:37:02;;;;;;;11.80;5.00;;;;;;;7.25;100.00;101476.44;7398793;19;20426;-43
2023/03/20 10:39:40;;;;;;;13.60;6.20;;;;;;;7.19;100.00;101478.59;7396165;19;20518;-42
2023/03/20 10:42:17;;;;;;;27.23;9.83;;;;;;;7.22;100.00;101468.56;7399407;19;20399;-43
2023/03/20 10:44:50;;;;;;;16.93;6.40;;;;;;;7.25;100.00;101471.31;7396526;19;20431;-43
2023/03/20 10:47:22;;;;;;;15.90;5.83;;;;;;;7.17;100.00;101457.97;7400410;19;20400;-42
2023/03/20 10:49:57;;;;;;;16.70;6.63;;;;;;;7.23;100.00;101462.63;7396422;19;20452;-43
2023/03/20 10:52:29;;;;;;;11.60;6.50;;;;;;;7.26;100.00;101457.69;7398417;19;20422;-43
2023/03/20 10:55:02;;;;;;;15.03;6.53;;;;;;;7.36;100.00;101452.38;7396238;19;20454;-44
2023/03/20 10:57:35;;;;;;;20.83;6.87;;;;;;;7.37;100.00;101459.28;7398557;19;20801;-45
2023/03/20 11:00:11;;;;;;;27.27;9.10;;;;;;;7.31;100.00;101453.75;7395565;19;21009;-43
2023/03/20 11:02:41;;;;;;;11.80;4.90;;;;;;;7.23;100.00;101447.22;7397192;19;20422;-44
2023/03/20 11:05:24;;;;;;;13.50;6.20;;;;;;;7.29;100.00;101453.66;7395498;19;20431;-42
2023/03/20 11:08:02;;;;;;;16.70;6.13;;;;;;;7.38;100.00;101452.50;7398632;19;20788;-42
2023/03/20 11:10:34;;;;;;;18.13;7.80;;;;;;;7.55;100.00;101454.47;7396307;19;21633;-45
2023/03/20 11:13:18;;;;;;;18.80;8.07;;;;;;;7.66;100.00;101462.00;7397323;19;20872;-42
2023/03/20 11:15:47;;;;;;;12.80;5.30;;;;;;;7.54;100.00;101460.41;7396187;19;20435;-42
2023/03/20 11:18:17;;;;;;;14.17;5.87;;;;;;;7.50;100.00;101461.00;7391022;19;21290;-47
2023/03/20 11:20:53;;;;;;;17.63;6.20;;;;;;;7.57;100.00;101457.16;7388365;19;20527;-41
2023/03/20 11:23:29;;;;;;;18.57;6.07;;;;;;;7.55;100.00;101461.31;7393129;19;20458;-44
2023/03/20 11:25:59;;;;;;;11.47;5.77;;;;;;;7.64;100.00;101451.63;7391915;19;20435;-45
2023/03/20 11:28:34;;;;;;;18.87;6.73;;;;;;;7.63;100.00;101454.97;7394322;19;20418;-43
2023/03/20 11:31:07;;;;;;;6.70;3.60;;;;;;;7.52;100.00;101463.66;7393705;19;20448;-44
2023/03/20 11:33:39;;;;;;;19.13;6.87;;;;;;;7.54;100.00;101467.22;7393251;19;20962;-42
2023/03/20 11:36:23;;;;;;;12.20;5.67;;;;;;;7.47;100.00;101457.31;7392673;19;20443;-44
2023/03/20 11:39:00;;;;;;;14.80;5.70;;;;;;;7.48;100.00;101457.44;7393664;19;20841;-42